Time;durP1;ratioP1;P1;durP2;ratioP2;P2;SDS_P1;SDS_P2;PMS_P1;PMS_P2;Temp;Humidity;BMP_temperature;BMP_pressure;BME280_temperature;BME280_humidity;BME280_pressure;Samples;Min_cycle;Max_cycle;Signal;HPM_P1;HPM_P2
2023/02/09 00:00:06;;;;;;;;;;;;;;;;;;1906209;28;7037;-64
2023/02/09 00:01:04;;;;;;;;;;;;;;;;;;1910604;28;7041;-63
2023/02/09 00:02:02;;;;;;;;;;;;;;;;;;1904126;28;7006;-63
2023/02/09 00:02:59;;;;;;;;;;;;;;;;;;1907624;28;7009;-63
2023/02/09 00:03:58;;;;;;;;;;;;;;;;;;1908340;28;7045;-63
2023/02/09 00:04:55;;;;;;;;;;;;;;;;;;1907316;28;7014;-64
2023/02/09 00:05:52;;;;;;;;;;;;;;;;;;1904432;28;8145;-63
2023/02/09 00:06:50;;;;;;;;;;;;;;;;;;1907333;28;7041;-64
2023/02/09 00:07:47;;;;;;;;;;;;;;;;;;1905549;28;7997;-64
2023/02/09 00:08:45;;;;;;;;;;;;;;;;;;1906655;28;8132;-63
2023/02/09 00:09:44;;;;;;;;;;;;;;;;;;1905362;28;7112;-63
2023/02/09 00:10:41;;;;;;;;;;;;;;;;;;1906339;28;7034;-64
2023/02/09 00:14:11;;;;;;;;;;;;;;;;;;1906445;28;7121;-63
2023/02/09 00:15:09;;;;;;;;;;;;;;;;;;1904262;28;8036;-65
2023/02/09 00:16:06;;;;;;;;;;;;;;;;;;1909919;28;7095;-63
2023/02/09 00:17:05;;;;;;;;;;;;;;;;;;1905114;28;7005;-65
2023/02/09 00:18:02;;;;;;;;;;;;;;;;;;1904471;28;7053;-64
2023/02/09 00:19:00;;;;;;;;;;;;;;;;;;1904464;28;7037;-64
2023/02/09 00:19:57;;;;;;;;;;;;;;;;;;1907750;28;7041;-64
2023/02/09 00:20:55;;;;;;;;;;;;;;;;;;1904351;28;8099;-65
2023/02/09 00:21:53;;;;;;;;;;;;;;;;;;1904205;28;7980;-63
2023/02/09 00:22:50;;;;;;;;;;;;;;;;;;1905131;28;7021;-64
2023/02/09 00:23:48;;;;;;;;;;;;;;;;;;1904302;28;7026;-63
2023/02/09 00:24:45;;;;;;;;;;;;;;;;;;1903311;28;8602;-65
2023/02/09 00:25:42;;;;;;;;;;;;;;;;;;1906238;28;7025;-64
2023/02/09 00:26:40;;;;;;;;;;;;;;;;;;1910353;28;7013;-64
2023/02/09 00:27:37;;;;;;;;;;;;;;;;;;1905149;28;7029;-63
2023/02/09 00:28:35;;;;;;;;;;;;;;;;;;1907813;28;7005;-64
2023/02/09 00:29:32;;;;;;;;;;;;;;;;;;1907862;28;7033;-64
2023/02/09 00:30:30;;;;;;;;;;;;;;;;;;1906836;28;7006;-63
2023/02/09 00:31:27;;;;;;;;;;;;;;;;;;1908055;28;7009;-63
2023/02/09 00:32:25;;;;;;;;;;;;;;;;;;1906858;28;7258;-64
2023/02/09 00:33:22;;;;;;;;;;;;;;;;;;1903978;28;8017;-63
2023/02/09 00:34:20;;;;;;;;;;;;;;;;;;1907317;28;8066;-63
2023/02/09 00:35:17;;;;;;;;;;;;;;;;;;1904093;28;7104;-64
2023/02/09 00:36:15;;;;;;;;;;;;;;;;;;1904083;28;7005;-63
2023/02/09 00:37:13;;;;;;;;;;;;;;;;;;1907281;28;7002;-65
2023/02/09 00:38:11;;;;;;;;;;;;;;;;;;1905931;28;7031;-64
2023/02/09 00:39:09;;;;;;;;;;;;;;;;;;1905721;28;7254;-63
2023/02/09 00:40:06;;;;;;;;;;;;;;;;;;1902669;28;7021;-64
2023/02/09 00:41:04;;;;;;;;;;;;;;;;;;1905212;28;7006;-64
2023/02/09 00:42:09;;;;;;;;;;;;;;;;;;1903420;28;8114;-64
2023/02/09 00:43:07;;;;;;;;;;;;;;;;;;1903279;28;7284;-63
2023/02/09 00:44:05;;;;;;;;;;;;;;;;;;1904908;28;7002;-63
2023/02/09 00:45:02;;;;;;;;;;;;;;;;;;1904066;28;7395;-64
2023/02/09 00:45:59;;;;;;;;;;;;;;;;;;1905918;28;7096;-63
2023/02/09 00:46:57;;;;;;;;;;;;;;;;;;1903390;28;7010;-63
2023/02/09 00:47:54;;;;;;;;;;;;;;;;;;1906991;28;7005;-64
2023/02/09 00:48:52;;;;;;;;;;;;;;;;;;1903596;28;7092;-64
2023/02/09 00:49:49;;;;;;;;;;;;;;;;;;1902719;28;7046;-64
2023/02/09 00:50:48;;;;;;;;;;;;;;;;;;1903950;28;7993;-63
2023/02/09 00:51:46;;;;;;;;;;;;;;;;;;1906343;28;7013;-64
2023/02/09 00:52:43;;;;;;;;;;;;;;;;;;1906561;28;7039;-63
2023/02/09 00:53:40;;;;;;;;;;;;;;;;;;1904917;28;7572;-64
2023/02/09 00:54:38;;;;;;;;;;;;;;;;;;1904941;28;7453;-63
2023/02/09 00:55:35;;;;;;;;;;;;;;;;;;1902768;28;7018;-64
2023/02/09 00:56:32;;;;;;;;;;;;;;;;;;1904673;28;7624;-63
2023/02/09 00:57:31;;;;;;;;;;;;;;;;;;1904493;28;7114;-63
2023/02/09 00:58:28;;;;;;;;;;;;;;;;;;1904557;28;7060;-64
2023/02/09 00:59:26;;;;;;;;;;;;;;;;;;1906998;28;7013;-64
2023/02/09 01:00:24;;;;;;;;;;;;;;;;;;1911425;28;7010;-63
2023/02/09 01:01:21;;;;;;;;;;;;;;;;;;1907864;28;7013;-63
2023/02/09 01:02:18;;;;;;;;;;;;;;;;;;1904147;28;8038;-63
2023/02/09 01:03:16;;;;;;;;;;;;;;;;;;1903207;28;8949;-64
2023/02/09 01:04:13;;;;;;;;;;;;;;;;;;1907470;28;7006;-64
2023/02/09 01:05:10;;;;;;;;;;;;;;;;;;1907938;28;7093;-64
2023/02/09 01:06:08;;;;;;;;;;;;;;;;;;1906941;28;7041;-63
2023/02/09 01:07:05;;;;;;;;;;;;;;;;;;1910431;28;7096;-63
2023/02/09 01:08:03;;;;;;;;;;;;;;;;;;1907980;28;7155;-63
2023/02/09 01:09:01;;;;;;;;;;;;;;;;;;1909966;28;7156;-64
2023/02/09 01:10:01;;;;;;;;;;;;;;;;;;1902954;28;7420;-63
2023/02/09 01:10:59;;;;;;;;;;;;;;;;;;1905704;28;7105;-63
2023/02/09 01:11:56;;;;;;;;;;;;;;;;;;1903262;28;7005;-63
2023/02/09 01:12:53;;;;;;;;;;;;;;;;;;1907500;28;8103;-64
2023/02/09 01:13:51;;;;;;;;;;;;;;;;;;1903604;28;7128;-64
2023/02/09 01:14:48;;;;;;;;;;;;;;;;;;1906011;28;8091;-64
2023/02/09 01:15:45;;;;;;;;;;;;;;;;;;1906619;28;7037;-64
2023/02/09 01:16:43;;;;;;;;;;;;;;;;;;1905445;28;7005;-63
2023/02/09 01:17:40;;;;;;;;;;;;;;;;;;1903351;28;7061;-64
2023/02/09 01:18:38;;;;;;;;;;;;;;;;;;1903190;28;7109;-64
2023/02/09 01:19:35;;;;;;;;;;;;;;;;;;1905131;28;7042;-65
2023/02/09 01:20:33;;;;;;;;;;;;;;;;;;1903796;28;7014;-63
2023/02/09 01:21:30;;;;;;;;;;;;;;;;;;1904238;28;8078;-64
2023/02/09 01:22:28;;;;;;;;;;;;;;;;;;1905583;28;7096;-64
2023/02/09 01:23:25;;;;;;;;;;;;;;;;;;1908171;28;7135;-64
2023/02/09 01:24:23;;;;;;;;;;;;;;;;;;1911372;28;7100;-64
2023/02/09 01:25:20;;;;;;;;;;;;;;;;;;1910683;28;8029;-63
2023/02/09 01:26:18;;;;;;;;;;;;;;;;;;1907611;28;7014;-64
2023/02/09 01:27:15;;;;;;;;;;;;;;;;;;1907293;28;7180;-63
2023/02/09 01:28:13;;;;;;;;;;;;;;;;;;1908979;28;7042;-64
2023/02/09 01:29:11;;;;;;;;;;;;;;;;;;1910354;28;7013;-64
2023/02/09 01:30:09;;;;;;;;;;;;;;;;;;1903244;28;7013;-64
2023/02/09 01:31:17;;;;;;;;;;;;;;;;;;1903763;28;8035;-64
2023/02/09 01:32:14;;;;;;;;;;;;;;;;;;1907708;28;7089;-63
2023/02/09 01:33:12;;;;;;;;;;;;;;;;;;1912270;28;7088;-63
2023/02/09 01:34:11;;;;;;;;;;;;;;;;;;1907649;28;7033;-63
2023/02/09 01:35:09;;;;;;;;;;;;;;;;;;1908376;28;7013;-63
2023/02/09 01:36:07;;;;;;;;;;;;;;;;;;1911959;28;7013;-64
2023/02/09 01:37:04;;;;;;;;;;;;;;;;;;1909063;28;7009;-64
2023/02/09 01:38:02;;;;;;;;;;;;;;;;;;1910036;28;7009;-63
2023/02/09 01:39:00;;;;;;;;;;;;;;;;;;1905441;28;7037;-62
2023/02/09 01:39:57;;;;;;;;;;;;;;;;;;1904447;28;7050;-64
2023/02/09 01:40:55;;;;;;;;;;;;;;;;;;1904381;28;7013;-64
2023/02/09 01:41:52;;;;;;;;;;;;;;;;;;1921922;28;7013;-63
2023/02/09 01:42:50;;;;;;;;;;;;;;;;;;1926086;28;7009;-64
2023/02/09 01:43:53;;;;;;;;;;;;;;;;;;1914294;28;7009;-64
2023/02/09 01:45:04;;;;;;;;;;;;;;;;;;1910630;28;7025;-63
2023/02/09 01:46:02;;;;;;;;;;;;;;;;;;1904184;28;7013;-64
2023/02/09 01:46:59;;;;;;;;;;;;;;;;;;1907373;28;7787;-64
2023/02/09 01:47:59;;;;;;;;;;;;;;;;;;1904204;28;7009;-63
2023/02/09 01:49:01;;;;;;;;;;;;;;;;;;1904396;28;8043;-63
2023/02/09 01:49:58;;;;;;;;;;;;;;;;;;1904273;28;7045;-64
2023/02/09 01:50:59;;;;;;;;;;;;;;;;;;1910484;28;7096;-64
2023/02/09 01:52:01;;;;;;;;;;;;;;;;;;1908818;28;7111;-63
2023/02/09 01:52:59;;;;;;;;;;;;;;;;;;1904039;28;7006;-64
2023/02/09 01:53:57;;;;;;;;;;;;;;;;;;1905237;28;7097;-64
2023/02/09 01:55:01;;;;;;;;;;;;;;;;;;1911492;28;7088;-64
2023/02/09 01:56:05;;;;;;;;;;;;;;;;;;1908878;28;7017;-63
2023/02/09 01:57:07;;;;;;;;;;;;;;;;;;1905333;28;7119;-64
2023/02/09 01:58:14;;;;;;;;;;;;;;;;;;1904461;28;7088;-64
2023/02/09 01:59:13;;;;;;;;;;;;;;;;;;1904073;28;7005;-64
2023/02/09 02:00:14;;;;;;;;;;;;;;;;;;1911112;28;7030;-63
2023/02/09 02:01:13;;;;;;;;;;;;;;;;;;1905459;28;8054;-63
2023/02/09 02:02:11;;;;;;;;;;;;;;;;;;1908448;28;7037;-63
2023/02/09 02:03:12;;;;;;;;;;;;;;;;;;1912070;28;7013;-63
2023/02/09 02:04:09;;;;;;;;;;;;;;;;;;1903090;28;7029;-64
2023/02/09 02:05:08;;;;;;;;;;;;;;;;;;1904385;28;7131;-63
2023/02/09 02:06:09;;;;;;;;;;;;;;;;;;1904614;28;7009;-64
2023/02/09 02:07:20;;;;;;;;;;;;;;;;;;1905871;28;7124;-63
2023/02/09 02:08:17;;;;;;;;;;;;;;;;;;1903893;28;7107;-63
2023/02/09 02:09:16;;;;;;;;;;;;;;;;;;1903638;28;7010;-63
2023/02/09 02:10:14;;;;;;;;;;;;;;;;;;1908256;28;7010;-64
2023/02/09 02:11:11;;;;;;;;;;;;;;;;;;1905549;28;7046;-64
2023/02/09 02:12:09;;;;;;;;;;;;;;;;;;1907353;28;7134;-65
2023/02/09 02:13:07;;;;;;;;;;;;;;;;;;1906563;28;7120;-63
2023/02/09 02:14:04;;;;;;;;;;;;;;;;;;1906340;28;7005;-63
2023/02/09 02:15:01;;;;;;;;;;;;;;;;;;1905785;28;7002;-65
2023/02/09 02:16:17;;;;;;;;;;;;;;;;;;1906536;28;7292;-63
2023/02/09 02:17:32;;;;;;;;;;;;;;;;;;1906122;28;7042;-63
2023/02/09 02:18:29;;;;;;;;;;;;;;;;;;1907286;28;7343;-63
2023/02/09 02:19:43;;;;;;;;;;;;;;;;;;1908799;28;7168;-63
2023/02/09 02:20:59;;;;;;;;;;;;;;;;;;1904528;28;7158;-64
2023/02/09 02:22:14;;;;;;;;;;;;;;;;;;1907622;28;7992;-63
2023/02/09 02:23:27;;;;;;;;;;;;;;;;;;1911216;28;8043;-63
2023/02/09 02:24:39;;;;;;;;;;;;;;;;;;1907317;28;7017;-64
2023/02/09 02:25:55;;;;;;;;;;;;;;;;;;1903721;28;7134;-63
2023/02/09 02:27:31;;;;;;;;;;;;;;;;;;1904182;28;8019;-63
2023/02/09 02:28:49;;;;;;;;;;;;;;;;;;1887234;28;7506;-64
2023/02/09 02:29:52;;;;;;;;;;;;;;;;;;1861254;29;7141;-63
2023/02/09 02:30:52;;;;;;;;;;;;;;;;;;1877612;28;7058;-64
2023/02/09 02:31:55;;;;;;;;;;;;;;;;;;1881544;28;8031;-63
2023/02/09 02:33:31;;;;;;;;;;;;;;;;;;1887091;28;7005;-64
2023/02/09 02:34:28;;;;;;;;;;;;;;;;;;1888620;28;7106;-63
2023/02/09 02:35:26;;;;;;;;;;;;;;;;;;1896511;28;7049;-63
2023/02/09 02:36:35;;;;;;;;;;;;;;;;;;1896467;28;7005;-63
2023/02/09 02:37:38;;;;;;;;;;;;;;;;;;1890752;28;8051;-64
2023/02/09 02:38:44;;;;;;;;;;;;;;;;;;1894304;28;7142;-63
2023/02/09 02:39:46;;;;;;;;;;;;;;;;;;1893489;28;8045;-64
2023/02/09 02:41:04;;;;;;;;;;;;;;;;;;1910612;28;7113;-63
2023/02/09 02:43:24;;;;;;;;;;;;;;;;;;1908967;28;7097;-64
2023/02/09 02:44:26;;;;;;;;;;;;;;;;;;1907957;28;7009;-64
2023/02/09 02:45:23;;;;;;;;;;;;;;;;;;1912729;28;7013;-64
2023/02/09 02:46:32;;;;;;;;;;;;;;;;;;1912707;28;7005;-63
2023/02/09 02:47:34;;;;;;;;;;;;;;;;;;1907283;28;7009;-63
2023/02/09 02:48:34;;;;;;;;;;;;;;;;;;1906083;28;7018;-63
2023/02/09 02:49:43;;;;;;;;;;;;;;;;;;1905977;28;7076;-63
2023/02/09 02:50:47;;;;;;;;;;;;;;;;;;1903856;28;8994;-64
2023/02/09 02:51:48;;;;;;;;;;;;;;;;;;1905700;28;7045;-64
2023/02/09 02:52:48;;;;;;;;;;;;;;;;;;1905880;28;7109;-63
2023/02/09 02:53:50;;;;;;;;;;;;;;;;;;1907030;28;7096;-63
2023/02/09 02:54:56;;;;;;;;;;;;;;;;;;1913278;28;7034;-64
2023/02/09 02:55:55;;;;;;;;;;;;;;;;;;1912916;28;7013;-63
2023/02/09 02:57:07;;;;;;;;;;;;;;;;;;1908658;28;7124;-64
2023/02/09 02:58:07;;;;;;;;;;;;;;;;;;1904605;28;8226;-63
2023/02/09 02:59:10;;;;;;;;;;;;;;;;;;1909041;28;7108;-64
2023/02/09 03:00:11;;;;;;;;;;;;;;;;;;1919485;28;8029;-63
2023/02/09 03:01:12;;;;;;;;;;;;;;;;;;1918913;28;7021;-63
2023/02/09 03:02:23;;;;;;;;;;;;;;;;;;1907661;28;7356;-63
2023/02/09 03:03:24;;;;;;;;;;;;;;;;;;1912319;28;8988;-64
2023/02/09 03:04:23;;;;;;;;;;;;;;;;;;1908049;28;7033;-64
2023/02/09 03:05:22;;;;;;;;;;;;;;;;;;1909028;28;7041;-64
2023/02/09 03:06:20;;;;;;;;;;;;;;;;;;1905040;28;7037;-63
2023/02/09 03:07:17;;;;;;;;;;;;;;;;;;1908261;28;7144;-64
2023/02/09 03:08:15;;;;;;;;;;;;;;;;;;1909602;28;7005;-63
2023/02/09 03:09:12;;;;;;;;;;;;;;;;;;1911818;28;7006;-64
2023/02/09 03:10:24;;;;;;;;;;;;;;;;;;1905256;28;7125;-64
2023/02/09 03:11:23;;;;;;;;;;;;;;;;;;1905421;28;7070;-64
2023/02/09 03:12:26;;;;;;;;;;;;;;;;;;1909150;28;7378;-64
2023/02/09 03:13:32;;;;;;;;;;;;;;;;;;1908190;28;8102;-64
2023/02/09 03:14:30;;;;;;;;;;;;;;;;;;1906420;28;7481;-64
2023/02/09 03:15:44;;;;;;;;;;;;;;;;;;1910109;28;7005;-64
2023/02/09 03:16:47;;;;;;;;;;;;;;;;;;1905528;28;7057;-63
2023/02/09 03:17:47;;;;;;;;;;;;;;;;;;1911058;28;7005;-63
2023/02/09 03:18:45;;;;;;;;;;;;;;;;;;1903667;28;7071;-63
2023/02/09 03:19:50;;;;;;;;;;;;;;;;;;1911782;28;7159;-64
2023/02/09 03:20:53;;;;;;;;;;;;;;;;;;1904427;28;7041;-63
2023/02/09 03:22:03;;;;;;;;;;;;;;;;;;1906316;28;7308;-64
2023/02/09 03:23:04;;;;;;;;;;;;;;;;;;1906513;28;7162;-64
2023/02/09 03:24:17;;;;;;;;;;;;;;;;;;1905126;28;7013;-63
2023/02/09 03:25:20;;;;;;;;;;;;;;;;;;1904805;28;8241;-65
2023/02/09 03:26:22;;;;;;;;;;;;;;;;;;1908111;28;7013;-64
2023/02/09 03:27:27;;;;;;;;;;;;;;;;;;1909215;28;7029;-64
2023/02/09 03:28:27;;;;;;;;;;;;;;;;;;1905711;28;8102;-64
2023/02/09 03:29:27;;;;;;;;;;;;;;;;;;1910749;28;7044;-64
2023/02/09 03:30:25;;;;;;;;;;;;;;;;;;1912746;28;7042;-63
2023/02/09 03:31:23;;;;;;;;;;;;;;;;;;1905295;28;9167;-64
2023/02/09 03:32:21;;;;;;;;;;;;;;;;;;1909901;28;7017;-64
2023/02/09 03:33:21;;;;;;;;;;;;;;;;;;1903797;28;7042;-63
2023/02/09 03:34:19;;;;;;;;;;;;;;;;;;1905104;28;7159;-64
2023/02/09 03:35:18;;;;;;;;;;;;;;;;;;1904760;28;7053;-64
2023/02/09 03:36:18;;;;;;;;;;;;;;;;;;1909196;28;7021;-63
2023/02/09 03:37:16;;;;;;;;;;;;;;;;;;1910106;28;7096;-63
2023/02/09 03:38:13;;;;;;;;;;;;;;;;;;1905469;28;7112;-64
2023/02/09 03:39:11;;;;;;;;;;;;;;;;;;1904722;28;7009;-64
2023/02/09 03:40:09;;;;;;;;;;;;;;;;;;1912407;28;7124;-64
2023/02/09 03:41:06;;;;;;;;;;;;;;;;;;1907154;28;7096;-65
2023/02/09 03:42:04;;;;;;;;;;;;;;;;;;1912482;28;7029;-63
2023/02/09 03:43:01;;;;;;;;;;;;;;;;;;1907329;28;7509;-63
2023/02/09 03:45:14;;;;;;;;;;;;;;;;;;1907069;28;7108;-64
2023/02/09 03:46:12;;;;;;;;;;;;;;;;;;1903984;28;7014;-64
2023/02/09 03:47:09;;;;;;;;;;;;;;;;;;1904642;28;7115;-64
2023/02/09 03:48:07;;;;;;;;;;;;;;;;;;1905400;28;7109;-64
2023/02/09 03:49:04;;;;;;;;;;;;;;;;;;1907577;28;7139;-64
2023/02/09 03:50:02;;;;;;;;;;;;;;;;;;1906621;28;7025;-64
2023/02/09 03:51:00;;;;;;;;;;;;;;;;;;1905215;28;7100;-63
2023/02/09 03:51:59;;;;;;;;;;;;;;;;;;1908506;28;7013;-63
2023/02/09 03:52:58;;;;;;;;;;;;;;;;;;1907643;28;7096;-63
2023/02/09 03:53:55;;;;;;;;;;;;;;;;;;1910120;28;7053;-63
2023/02/09 03:54:52;;;;;;;;;;;;;;;;;;1910693;28;7005;-63
2023/02/09 03:55:50;;;;;;;;;;;;;;;;;;1909027;28;7009;-65
2023/02/09 03:56:47;;;;;;;;;;;;;;;;;;1907380;28;8083;-64
2023/02/09 03:57:45;;;;;;;;;;;;;;;;;;1916837;28;7123;-64
2023/02/09 03:58:42;;;;;;;;;;;;;;;;;;1912147;28;7113;-64
2023/02/09 03:59:40;;;;;;;;;;;;;;;;;;1908488;28;7145;-64
2023/02/09 04:00:38;;;;;;;;;;;;;;;;;;1906759;28;7006;-63
2023/02/09 04:01:35;;;;;;;;;;;;;;;;;;1909291;28;7412;-63
2023/02/09 04:02:33;;;;;;;;;;;;;;;;;;1908776;28;8039;-64
2023/02/09 04:03:30;;;;;;;;;;;;;;;;;;1904802;28;7093;-64
2023/02/09 04:04:28;;;;;;;;;;;;;;;;;;1905762;28;8125;-63
2023/02/09 04:05:25;;;;;;;;;;;;;;;;;;1911676;28;7092;-64
2023/02/09 04:06:22;;;;;;;;;;;;;;;;;;1911718;28;7100;-63
2023/02/09 04:07:20;;;;;;;;;;;;;;;;;;1906572;28;7134;-64
2023/02/09 04:08:17;;;;;;;;;;;;;;;;;;1908606;28;7084;-64
2023/02/09 04:09:14;;;;;;;;;;;;;;;;;;1909984;28;7017;-65
2023/02/09 04:10:12;;;;;;;;;;;;;;;;;;1908135;28;7005;-63
2023/02/09 04:11:09;;;;;;;;;;;;;;;;;;1911609;28;7006;-64
2023/02/09 04:12:06;;;;;;;;;;;;;;;;;;1908707;28;7092;-64
2023/02/09 04:13:04;;;;;;;;;;;;;;;;;;1910881;28;7088;-63
2023/02/09 04:14:01;;;;;;;;;;;;;;;;;;1908753;28;7092;-63
2023/02/09 04:14:59;;;;;;;;;;;;;;;;;;1911772;28;7232;-65
2023/02/09 04:15:56;;;;;;;;;;;;;;;;;;1910831;28;7088;-64
2023/02/09 04:16:53;;;;;;;;;;;;;;;;;;1908342;28;7235;-64
2023/02/09 04:17:51;;;;;;;;;;;;;;;;;;1907108;28;7096;-64
2023/02/09 04:18:48;;;;;;;;;;;;;;;;;;1905559;28;7038;-64
2023/02/09 04:19:45;;;;;;;;;;;;;;;;;;1911257;28;7026;-64
2023/02/09 04:20:43;;;;;;;;;;;;;;;;;;1911987;28;7013;-64
2023/02/09 04:21:41;;;;;;;;;;;;;;;;;;1905481;28;7006;-63
2023/02/09 04:22:38;;;;;;;;;;;;;;;;;;1904783;28;8027;-64
2023/02/09 04:23:36;;;;;;;;;;;;;;;;;;1904759;28;7005;-65
2023/02/09 04:24:34;;;;;;;;;;;;;;;;;;1909844;28;7009;-64
2023/02/09 04:25:31;;;;;;;;;;;;;;;;;;1912074;28;7100;-63
2023/02/09 04:26:28;;;;;;;;;;;;;;;;;;1911599;28;8153;-64
2023/02/09 04:27:27;;;;;;;;;;;;;;;;;;1908288;28;7156;-63
2023/02/09 04:28:24;;;;;;;;;;;;;;;;;;1908584;28;7093;-63
2023/02/09 04:29:22;;;;;;;;;;;;;;;;;;1910929;28;7029;-63
2023/02/09 04:30:19;;;;;;;;;;;;;;;;;;1903607;28;7009;-64
2023/02/09 04:31:16;;;;;;;;;;;;;;;;;;1904669;28;7116;-64
2023/02/09 04:32:14;;;;;;;;;;;;;;;;;;1906449;28;7088;-63
2023/02/09 04:33:11;;;;;;;;;;;;;;;;;;1904432;28;8092;-64
2023/02/09 04:34:09;;;;;;;;;;;;;;;;;;1907328;28;7078;-64
2023/02/09 04:35:06;;;;;;;;;;;;;;;;;;1911697;28;7251;-64
2023/02/09 04:36:04;;;;;;;;;;;;;;;;;;1906054;28;7108;-63
2023/02/09 04:37:01;;;;;;;;;;;;;;;;;;1911727;28;7142;-63
2023/02/09 04:37:58;;;;;;;;;;;;;;;;;;1911691;28;7037;-65
2023/02/09 04:38:56;;;;;;;;;;;;;;;;;;1910918;28;7009;-63
2023/02/09 04:39:53;;;;;;;;;;;;;;;;;;1903590;28;7005;-64
2023/02/09 04:40:52;;;;;;;;;;;;;;;;;;1904414;28;7401;-64
2023/02/09 04:41:50;;;;;;;;;;;;;;;;;;1902829;28;7022;-63
2023/02/09 04:42:47;;;;;;;;;;;;;;;;;;1906878;28;7005;-64
2023/02/09 04:43:45;;;;;;;;;;;;;;;;;;1904401;28;7109;-64
2023/02/09 04:44:42;;;;;;;;;;;;;;;;;;1905194;28;7088;-63
2023/02/09 04:45:41;;;;;;;;;;;;;;;;;;1907930;28;7009;-63
2023/02/09 04:46:38;;;;;;;;;;;;;;;;;;1905377;28;7184;-64
2023/02/09 04:47:36;;;;;;;;;;;;;;;;;;1909677;28;7096;-63
2023/02/09 04:48:33;;;;;;;;;;;;;;;;;;1909016;28;7124;-64
2023/02/09 04:49:30;;;;;;;;;;;;;;;;;;1903864;28;7010;-64
2023/02/09 04:50:28;;;;;;;;;;;;;;;;;;1911506;28;7113;-63
2023/02/09 04:51:25;;;;;;;;;;;;;;;;;;1911694;28;7092;-64
2023/02/09 04:52:22;;;;;;;;;;;;;;;;;;1909014;28;7095;-63
2023/02/09 04:53:20;;;;;;;;;;;;;;;;;;1911597;28;7981;-64
2023/02/09 04:54:18;;;;;;;;;;;;;;;;;;1911213;28;7148;-64
2023/02/09 04:55:15;;;;;;;;;;;;;;;;;;1910559;28;7461;-64
2023/02/09 04:56:13;;;;;;;;;;;;;;;;;;1908682;28;8269;-63
2023/02/09 04:59:43;;;;;;;;;;;;;;;;;;1903281;28;7021;-64
2023/02/09 05:00:41;;;;;;;;;;;;;;;;;;1907065;28;7033;-64
2023/02/09 05:01:38;;;;;;;;;;;;;;;;;;1909348;28;7021;-64
2023/02/09 05:02:36;;;;;;;;;;;;;;;;;;1903439;28;7020;-63
2023/02/09 05:03:34;;;;;;;;;;;;;;;;;;1907598;28;7013;-64
2023/02/09 05:04:31;;;;;;;;;;;;;;;;;;1907801;28;7359;-64
2023/02/09 05:05:29;;;;;;;;;;;;;;;;;;1909428;28;7169;-64
2023/02/09 05:06:26;;;;;;;;;;;;;;;;;;1904292;28;7121;-63
2023/02/09 05:07:25;;;;;;;;;;;;;;;;;;1908636;28;7116;-64
2023/02/09 05:08:25;;;;;;;;;;;;;;;;;;1911738;28;7097;-64
2023/02/09 05:09:22;;;;;;;;;;;;;;;;;;1908581;28;8042;-64
2023/02/09 05:10:20;;;;;;;;;;;;;;;;;;1904495;28;7130;-63
2023/02/09 05:11:17;;;;;;;;;;;;;;;;;;1911445;28;8111;-64
2023/02/09 05:12:15;;;;;;;;;;;;;;;;;;1907936;28;7260;-64
2023/02/09 05:13:12;;;;;;;;;;;;;;;;;;1906468;28;7138;-64
2023/02/09 05:14:09;;;;;;;;;;;;;;;;;;1905938;28;7010;-63
2023/02/09 05:15:07;;;;;;;;;;;;;;;;;;1911272;28;7088;-63
2023/02/09 05:16:05;;;;;;;;;;;;;;;;;;1910650;28;7001;-64
2023/02/09 05:17:02;;;;;;;;;;;;;;;;;;1908579;28;7009;-64
2023/02/09 05:18:00;;;;;;;;;;;;;;;;;;1904835;28;7006;-63
2023/02/09 05:18:57;;;;;;;;;;;;;;;;;;1905079;28;7042;-63
2023/02/09 05:19:54;;;;;;;;;;;;;;;;;;1905174;28;7108;-64
2023/02/09 05:20:52;;;;;;;;;;;;;;;;;;1910243;28;7001;-63
2023/02/09 05:21:49;;;;;;;;;;;;;;;;;;1906987;28;7009;-63
2023/02/09 05:22:46;;;;;;;;;;;;;;;;;;1903641;28;7005;-64
2023/02/09 05:23:46;;;;;;;;;;;;;;;;;;1919260;28;7038;-64
2023/02/09 05:24:43;;;;;;;;;;;;;;;;;;1921321;28;7390;-63
2023/02/09 05:25:41;;;;;;;;;;;;;;;;;;1908015;28;7033;-65
2023/02/09 05:26:38;;;;;;;;;;;;;;;;;;1912230;28;7005;-64
2023/02/09 05:27:35;;;;;;;;;;;;;;;;;;1911987;28;7009;-64
2023/02/09 05:28:33;;;;;;;;;;;;;;;;;;1904625;28;7021;-63
2023/02/09 05:29:30;;;;;;;;;;;;;;;;;;1925604;28;7030;-63
2023/02/09 05:30:29;;;;;;;;;;;;;;;;;;1924504;28;7113;-63
2023/02/09 05:31:27;;;;;;;;;;;;;;;;;;1913110;28;7183;-64
2023/02/09 05:32:24;;;;;;;;;;;;;;;;;;1912378;28;7009;-63
2023/02/09 05:33:23;;;;;;;;;;;;;;;;;;1906545;28;8062;-63
2023/02/09 05:34:21;;;;;;;;;;;;;;;;;;1904975;28;7153;-63
2023/02/09 05:35:18;;;;;;;;;;;;;;;;;;1904336;28;7045;-63
2023/02/09 05:36:16;;;;;;;;;;;;;;;;;;1906498;28;7339;-63
2023/02/09 05:37:13;;;;;;;;;;;;;;;;;;1911666;28;7124;-64
2023/02/09 05:38:10;;;;;;;;;;;;;;;;;;1910536;28;7524;-64
2023/02/09 05:39:08;;;;;;;;;;;;;;;;;;1905028;28;7324;-64
2023/02/09 05:40:05;;;;;;;;;;;;;;;;;;1904292;28;7737;-64
2023/02/09 05:41:07;;;;;;;;;;;;;;;;;;1904082;28;7124;-64
2023/02/09 05:42:16;;;;;;;;;;;;;;;;;;1907365;28;7153;-63
2023/02/09 05:43:14;;;;;;;;;;;;;;;;;;1903324;28;7298;-63
2023/02/09 05:44:11;;;;;;;;;;;;;;;;;;1910338;28;7025;-64
2023/02/09 05:45:09;;;;;;;;;;;;;;;;;;1907643;28;7226;-64
2023/02/09 05:46:06;;;;;;;;;;;;;;;;;;1911657;28;7005;-64
2023/02/09 05:47:04;;;;;;;;;;;;;;;;;;1912049;28;8921;-64
2023/02/09 05:48:02;;;;;;;;;;;;;;;;;;1905815;28;7506;-63
2023/02/09 05:49:00;;;;;;;;;;;;;;;;;;1904635;28;8047;-63
2023/02/09 05:49:57;;;;;;;;;;;;;;;;;;1903565;28;7021;-63
2023/02/09 05:50:54;;;;;;;;;;;;;;;;;;1904867;28;7141;-64
2023/02/09 05:51:52;;;;;;;;;;;;;;;;;;1911889;28;7190;-64
2023/02/09 05:52:49;;;;;;;;;;;;;;;;;;1904113;28;7081;-63
2023/02/09 05:53:46;;;;;;;;;;;;;;;;;;1904480;28;7046;-63
2023/02/09 05:54:45;;;;;;;;;;;;;;;;;;1908346;28;7409;-64
2023/02/09 05:55:43;;;;;;;;;;;;;;;;;;1910549;28;8075;-64
2023/02/09 05:56:40;;;;;;;;;;;;;;;;;;1907209;28;7120;-64
2023/02/09 05:57:38;;;;;;;;;;;;;;;;;;1910396;28;7092;-64
2023/02/09 05:58:35;;;;;;;;;;;;;;;;;;1911308;28;7093;-63
2023/02/09 05:59:32;;;;;;;;;;;;;;;;;;1911492;28;7037;-63
2023/02/09 06:00:30;;;;;;;;;;;;;;;;;;1906975;28;7009;-63
2023/02/09 06:01:27;;;;;;;;;;;;;;;;;;1912193;28;8000;-63
2023/02/09 06:02:24;;;;;;;;;;;;;;;;;;1905697;28;7092;-64
2023/02/09 06:03:22;;;;;;;;;;;;;;;;;;1904364;28;7017;-63
2023/02/09 06:04:19;;;;;;;;;;;;;;;;;;1904518;28;7017;-64
2023/02/09 06:05:18;;;;;;;;;;;;;;;;;;1903166;28;7097;-63
2023/02/09 06:06:16;;;;;;;;;;;;;;;;;;1906071;28;8059;-64
2023/02/09 06:07:13;;;;;;;;;;;;;;;;;;1910457;28;7096;-63
2023/02/09 06:08:10;;;;;;;;;;;;;;;;;;1906387;28;8119;-64
2023/02/09 06:09:08;;;;;;;;;;;;;;;;;;1905517;28;8118;-64
2023/02/09 06:10:06;;;;;;;;;;;;;;;;;;1904804;28;7013;-63
2023/02/09 06:11:04;;;;;;;;;;;;;;;;;;1908953;28;7033;-65
2023/02/09 06:12:02;;;;;;;;;;;;;;;;;;1907072;28;7041;-63
2023/02/09 06:12:59;;;;;;;;;;;;;;;;;;1911121;28;7477;-64
2023/02/09 06:13:57;;;;;;;;;;;;;;;;;;1913758;28;7168;-64
2023/02/09 06:14:54;;;;;;;;;;;;;;;;;;1909803;28;7167;-63
2023/02/09 06:15:51;;;;;;;;;;;;;;;;;;1905551;28;7100;-63
2023/02/09 06:16:49;;;;;;;;;;;;;;;;;;1911563;28;7109;-64
2023/02/09 06:17:46;;;;;;;;;;;;;;;;;;1905748;28;7096;-63
2023/02/09 06:18:44;;;;;;;;;;;;;;;;;;1910093;28;7092;-65
2023/02/09 06:19:41;;;;;;;;;;;;;;;;;;1913051;28;7088;-64
2023/02/09 06:20:38;;;;;;;;;;;;;;;;;;1913256;28;7245;-64
2023/02/09 06:21:35;;;;;;;;;;;;;;;;;;1908492;28;7009;-64
2023/02/09 06:22:33;;;;;;;;;;;;;;;;;;1907001;28;7021;-64
2023/02/09 06:23:31;;;;;;;;;;;;;;;;;;1910921;28;8027;-64
2023/02/09 06:24:31;;;;;;;;;;;;;;;;;;1905545;28;7009;-64
2023/02/09 06:25:28;;;;;;;;;;;;;;;;;;1910002;28;7113;-64
2023/02/09 06:26:27;;;;;;;;;;;;;;;;;;1912644;28;7829;-64
2023/02/09 06:27:24;;;;;;;;;;;;;;;;;;1920007;28;7009;-63
2023/02/09 06:28:22;;;;;;;;;;;;;;;;;;1913724;28;7112;-63
2023/02/09 06:29:20;;;;;;;;;;;;;;;;;;1909629;28;7092;-64
2023/02/09 06:30:17;;;;;;;;;;;;;;;;;;1906234;28;7009;-64
2023/02/09 06:31:14;;;;;;;;;;;;;;;;;;1913431;28;7014;-64
2023/02/09 06:32:12;;;;;;;;;;;;;;;;;;1905365;28;7043;-64
2023/02/09 06:33:09;;;;;;;;;;;;;;;;;;1908674;28;7013;-63
2023/02/09 06:34:07;;;;;;;;;;;;;;;;;;1906844;28;7843;-64
2023/02/09 06:35:05;;;;;;;;;;;;;;;;;;1908520;28;7009;-64
2023/02/09 06:36:03;;;;;;;;;;;;;;;;;;1907202;28;7009;-63
2023/02/09 06:37:01;;;;;;;;;;;;;;;;;;1920078;28;7029;-64
2023/02/09 06:37:58;;;;;;;;;;;;;;;;;;1919936;28;7088;-64
2023/02/09 06:38:55;;;;;;;;;;;;;;;;;;1913477;28;7092;-63
2023/02/09 06:39:53;;;;;;;;;;;;;;;;;;1909192;28;7088;-64
2023/02/09 06:40:50;;;;;;;;;;;;;;;;;;1911001;28;8015;-64
2023/02/09 06:41:47;;;;;;;;;;;;;;;;;;1912047;28;7105;-64
2023/02/09 06:42:45;;;;;;;;;;;;;;;;;;1905722;28;7042;-64
2023/02/09 06:43:42;;;;;;;;;;;;;;;;;;1906026;28;7001;-64
2023/02/09 06:44:39;;;;;;;;;;;;;;;;;;1905709;28;8006;-64
2023/02/09 06:45:38;;;;;;;;;;;;;;;;;;1904376;28;7286;-63
2023/02/09 06:46:35;;;;;;;;;;;;;;;;;;1905455;28;7117;-63
2023/02/09 06:47:32;;;;;;;;;;;;;;;;;;1912724;28;8115;-64
2023/02/09 06:48:30;;;;;;;;;;;;;;;;;;1910690;28;7318;-62
2023/02/09 06:49:28;;;;;;;;;;;;;;;;;;1909423;28;7149;-64
2023/02/09 06:50:25;;;;;;;;;;;;;;;;;;1913074;28;7213;-64
2023/02/09 06:51:23;;;;;;;;;;;;;;;;;;1907378;28;8057;-63
2023/02/09 06:52:20;;;;;;;;;;;;;;;;;;1905219;28;7105;-63
2023/02/09 06:53:18;;;;;;;;;;;;;;;;;;1908809;28;7046;-63
2023/02/09 06:54:15;;;;;;;;;;;;;;;;;;1908060;28;7112;-64
2023/02/09 06:55:12;;;;;;;;;;;;;;;;;;1911658;28;7013;-64
2023/02/09 06:56:11;;;;;;;;;;;;;;;;;;1905062;28;7199;-64
2023/02/09 06:57:08;;;;;;;;;;;;;;;;;;1905262;28;7045;-63
2023/02/09 06:58:06;;;;;;;;;;;;;;;;;;1905565;28;7013;-64